Swift Ace — C6XB8 — position and weather

sailwx.info

Track history (hours):
 
Tides and Currents Weather Stations Pressure Air Temp Water Temp Dewpoint Dewpoint Depression Visibility Wind Speed Wind Dir Waves Ship Positions

Swift Ace

Last reported at 2014-Jul-29 18:12 UTC. Time now 2014-Jul-29 18:57 UTC.
Position N 45°05' W 125°19'.

Length 200 m; draft 8.7 m.

Type: Cargo ship. MMSI: 311004900.

Date/timePositionNaut miles runAvg speedWind from/ knotsBaromVisibWave heightAir tempDewpointWater temp
2014-Jul-29 18:12N 45°05' W 125°19'1215.0
2014-Jul-29 17:24N 45°17' W 125°18'1315.0
2014-Jul-29 16:33N 45°30' W 125°18'1515.2
2014-Jul-29 15:33N 45°45' W 125°20'2017.3
2014-Jul-29 14:25N 46°04' W 125°18'1517.5
2014-Jul-29 13:33N 46°20' W 125°18'1817.4
2014-Jul-29 12:33N 46°37' W 125°18'7317.4
2014-Jul-29 08:20N 47°50' W 125°18'1317.3
2014-Jul-29 07:33N 48°04' W 125°17'1717.4
2014-Jul-29 06:33N 48°20' W 125°10'1515.4
2014-Jul-29 05:33N 48°30' W 124°52'1817.6
2014-Jul-29 04:33N 48°25' W 124°26'1717.2
2014-Jul-29 03:33N 48°19' W 124°03'1717.0
2014-Jul-29 02:33N 48°15' W 123°38'1312.8
2014-Jul-29 01:34N 48°09' W 123°21'1514.9
2014-Jul-29 00:33N 48°12' W 122°59'1514.9
2014-Jul-28 23:33N 48°06' W 122°39'1616.0
2014-Jul-28 22:33N 47°52' W 122°28'1818.3
2014-Jul-28 21:34N 47°34' W 122°26'1514.9
2014-Jul-28 20:33N 47°19' W 122°28'5 4.6
2014-Jul-28 19:32N 47°15' W 122°23'0 0.1
2014-Jul-28 18:32N 47°15' W 122°23'0 0.0
2014-Jul-28 17:32N 47°15' W 122°23'0 0.0
2014-Jul-28 16:32N 47°15' W 122°23'0 0.0
2014-Jul-28 15:32N 47°15' W 122°23'0 0.0
2014-Jul-28 14:32N 47°15' W 122°23'0 0.0
2014-Jul-28 13:32N 47°15' W 122°23'0 0.0
2014-Jul-28 12:32N 47°15' W 122°23'0 0.0
2014-Jul-28 11:32N 47°15' W 122°23'0 0.0
2014-Jul-28 10:32N 47°15' W 122°23'1 0.7
2014-Jul-28 09:33N 47°16' W 122°24'5 5.2
2014-Jul-28 08:34N 47°21' W 122°26'1717.2
2014-Jul-28 07:34N 47°38' W 122°28'1818.1
2014-Jul-28 06:33N 47°56' W 122°32'1616.1
2014-Jul-28 05:34N 48°09' W 122°45'1717.3
2014-Jul-28 04:33N 48°11' W 123°11'1211.3
2014-Jul-28 03:32N 48°11' W 123°28'1212.6
2014-Jul-28 02:34N 48°23' W 123°23'1212.1
2014-Jul-28 01:33N 48°34' W 123°13'1414.0
2014-Jul-28 00:34N 48°46' W 123°04'1515.4
2014-Jul-27 23:34N 48°59' W 123°16'9 8.5
2014-Jul-27 22:33N 49°08' W 123°15'1110.6
2014-Jul-27 21:33N 49°09' W 122°59'3 2.7
2014-Jul-27 20:32N 49°11' W 122°55'0 0.0
2014-Jul-27 19:32N 49°11' W 122°55'0 0.0
2014-Jul-27 18:32N 49°11' W 122°55'0 0.0
2014-Jul-27 17:29N 49°11' W 122°55'0 0.0
2014-Jul-27 16:32N 49°11' W 122°55'0 0.0
2014-Jul-27 15:32N 49°11' W 122°55'0 0.0
2014-Jul-27 14:32N 49°11' W 122°55'1 1.0
2014-Jul-27 13:33N 49°10' W 122°56'8 7.9
2014-Jul-27 12:33N 49°07' W 123°07'9 8.9
2014-Jul-27 11:34N 49°05' W 123°20'1010.1
2014-Jul-27 10:34N 48°58' W 123°09'1414.0
2014-Jul-27 09:33N 48°44' W 123°07'1515.5
2014-Jul-27 08:34N 48°28' W 123°10'1111.3
2014-Jul-27 07:33N 48°21' W 123°23'1210.9
2014-Jul-27 06:30N 48°13' W 123°36'1914.5
2014-Jul-27 05:09N 48°16' W 124°05'3613.7
2014-Jul-27 02:33N 48°28' W 124°55'1413.9
2014-Jul-27 01:33N 48°29' W 125°16'1414.0
2014-Jul-27 00:33N 48°29' W 125°37'1414.1
2014-Jul-26 23:33N 48°29' W 125°58'1414.3
2014-Jul-26 22:33N 48°29' W 126°20'  
Track history (hours):
 
Tides and Currents Weather Stations Pressure Air Temp Water Temp Dewpoint Dewpoint Depression Visibility Wind Speed Wind Dir Waves Ship Positions

Swift Ace

Last reported at 2014-Jul-29 18:12 UTC. Time now 2014-Jul-29 18:57 UTC.
Position N 45°05' W 125°19'.

Length 200 m; draft 8.7 m.

Type: Cargo ship. MMSI: 311004900.

Date/timePositionNaut miles runAvg speedWind from/ knotsBaromVisibWave heightAir tempDewpointWater temp
2014-Jul-29 18:12N 45°05' W 125°19'1215.0
2014-Jul-29 17:24N 45°17' W 125°18'1315.0
2014-Jul-29 16:33N 45°30' W 125°18'1515.2
2014-Jul-29 15:33N 45°45' W 125°20'2017.3
2014-Jul-29 14:25N 46°04' W 125°18'1517.5
2014-Jul-29 13:33N 46°20' W 125°18'1817.4
2014-Jul-29 12:33N 46°37' W 125°18'7317.4
2014-Jul-29 08:20N 47°50' W 125°18'1317.3
2014-Jul-29 07:33N 48°04' W 125°17'1717.4
2014-Jul-29 06:33N 48°20' W 125°10'1515.4
2014-Jul-29 05:33N 48°30' W 124°52'1817.6
2014-Jul-29 04:33N 48°25' W 124°26'1717.2
2014-Jul-29 03:33N 48°19' W 124°03'1717.0
2014-Jul-29 02:33N 48°15' W 123°38'1312.8
2014-Jul-29 01:34N 48°09' W 123°21'1514.9
2014-Jul-29 00:33N 48°12' W 122°59'1514.9
2014-Jul-28 23:33N 48°06' W 122°39'1616.0
2014-Jul-28 22:33N 47°52' W 122°28'1818.3
2014-Jul-28 21:34N 47°34' W 122°26'1514.9
2014-Jul-28 20:33N 47°19' W 122°28'5 4.6
2014-Jul-28 19:32N 47°15' W 122°23'0 0.1
2014-Jul-28 18:32N 47°15' W 122°23'0 0.0
2014-Jul-28 17:32N 47°15' W 122°23'0 0.0
2014-Jul-28 16:32N 47°15' W 122°23'0 0.0
2014-Jul-28 15:32N 47°15' W 122°23'0 0.0
2014-Jul-28 14:32N 47°15' W 122°23'0 0.0
2014-Jul-28 13:32N 47°15' W 122°23'0 0.0
2014-Jul-28 12:32N 47°15' W 122°23'0 0.0
2014-Jul-28 11:32N 47°15' W 122°23'0 0.0
2014-Jul-28 10:32N 47°15' W 122°23'1 0.7
2014-Jul-28 09:33N 47°16' W 122°24'5 5.2
2014-Jul-28 08:34N 47°21' W 122°26'1717.2
2014-Jul-28 07:34N 47°38' W 122°28'1818.1
2014-Jul-28 06:33N 47°56' W 122°32'1616.1
2014-Jul-28 05:34N 48°09' W 122°45'1717.3
2014-Jul-28 04:33N 48°11' W 123°11'1211.3
2014-Jul-28 03:32N 48°11' W 123°28'1212.6
2014-Jul-28 02:34N 48°23' W 123°23'1212.1
2014-Jul-28 01:33N 48°34' W 123°13'1414.0
2014-Jul-28 00:34N 48°46' W 123°04'1515.4
2014-Jul-27 23:34N 48°59' W 123°16'9 8.5
2014-Jul-27 22:33N 49°08' W 123°15'1110.6
2014-Jul-27 21:33N 49°09' W 122°59'3 2.7
2014-Jul-27 20:32N 49°11' W 122°55'0 0.0
2014-Jul-27 19:32N 49°11' W 122°55'0 0.0
2014-Jul-27 18:32N 49°11' W 122°55'0 0.0
2014-Jul-27 17:29N 49°11' W 122°55'0 0.0
2014-Jul-27 16:32N 49°11' W 122°55'0 0.0
2014-Jul-27 15:32N 49°11' W 122°55'0 0.0
2014-Jul-27 14:32N 49°11' W 122°55'1 1.0
2014-Jul-27 13:33N 49°10' W 122°56'8 7.9
2014-Jul-27 12:33N 49°07' W 123°07'9 8.9
2014-Jul-27 11:34N 49°05' W 123°20'1010.1
2014-Jul-27 10:34N 48°58' W 123°09'1414.0
2014-Jul-27 09:33N 48°44' W 123°07'1515.5
2014-Jul-27 08:34N 48°28' W 123°10'1111.3
2014-Jul-27 07:33N 48°21' W 123°23'1210.9
2014-Jul-27 06:30N 48°13' W 123°36'1914.5
2014-Jul-27 05:09N 48°16' W 124°05'3613.7
2014-Jul-27 02:33N 48°28' W 124°55'1413.9
2014-Jul-27 01:33N 48°29' W 125°16'1414.0
2014-Jul-27 00:33N 48°29' W 125°37'1414.1
2014-Jul-26 23:33N 48°29' W 125°58'1414.3
2014-Jul-26 22:33N 48°29' W 126°20'  

Dump ship's entire track history